Aviation Digital Data Service (ADDS)

Output produced by METARs form (0111 UTC 20 January 2022)
found at http://www.aviationweather.gov/metar/data/
 
NGTA 200100Z 06010KT 9999 FEW020 31/24 Q1006
NGTA 200000Z 03010KT 9999 FEW020 30/24 Q1006
NGTA 192300Z 03008KT 9999 FEW020 30/25 Q1006
NGTA 192200Z 10012KT 9999 SCT020 29/24 Q1008
NGTA 192100Z 03009KT 9999 FEW020 29/24 Q1006
NGTA 192000Z 03010KT 9999 FEW020 SCT300 28/25 Q1006
NGTA 191900Z 09013KT 9999 FEW020 SCT300 27/25 Q1005
NGTA 191800Z 09014KT 9999 FEW020 BKN300 27/24 Q1004
NGTA 191700Z 09013KT 9999 FEW018TCU BKN040 26/25 Q1004
NGTA 191600Z 09012KT 9999 -DZ FEW018TCU SCT040 BKN300 26/25 Q10 04
NGTA 191500Z 08013KT 9999 -SHRA FEW018TCU SCT040 BKN300 26/24 Q1004 RMK RR 2.9MM
NGTA 191420Z 07014KT 8000 SHRA SCT017TCU BKN035 26/25 Q1004
NGTA 191400Z 08014KT 9999 VCSH FEW018TCU SCT040 BKN300 27/24 Q1 005
NGTA 191300Z 07013KT 9999 FEW018TCU BKN040 27/25 Q1005 RMK RR TRC
NGTA 191200Z 09014KT 9999 -SHRA FEW016CB FEW018TCU SCT300 28/25 Q1006
NGTA 191100Z 07012KT 9999 VCSH FEW018TCU SCT040 BKN300 28/25 Q1 006
NGTA 191000Z 08013KT 9999 FEW018TCU BKN300 28/25 Q1006
NGTA 190900Z 05012KT 9999 VCSH FEW018TCU BKN300 28/25 Q1005
NGTA 190800Z 05012KT 9999 FEW018TCU BKN300 28/24 Q1005
NGTA 190700Z 05009KT 9999 VCSH FEW018TCU BKN300 28/24 Q1004
NGTA 190600Z 05012KT 9999 FEW018TCU BKN300 28/25 Q1004
NGTA 190500Z 05012KT 9999 FEW018TCU BKN300 30/25 Q1003
NGTA 190400Z 06012KT 9999 FEW018TCU BKN300 29/25 Q1003
NGTA 190300Z 05012KT 9999 FEW018TCU SCT040 BKN300 29/25 Q1003
NGTA 190200Z 06008KT 9999 FEW018TCU BKN300 31/25 Q1004
TAF NGTA 192314Z 2000/2024 03009KT 9999 FEW020